Happy Valentine's Day! 

Flight Track Log - Related Links

Times and Time Zones

All times are in EDT time to prevent confusion due to time zone crossing. See the N10NM flight status page for this flight to view local times or setup timezone preferences in your user account.


Time Position Orientation Groundspeed Altitude Reporting Facility
EDT Latitude Longitude Course Direction KTS MPH feet Rate Location/Type
Fri 11:55:10 AM 46.6825 -92.2081 258° West 88 101 5,700  Level Minneapolis Center
Fri 11:56:12 AM 46.6775 -92.2439 259° West 90 104 7,000 871 Climbing Minneapolis Center
Fri 11:57:14 AM 46.6706 -92.2858 256° West 95 109 7,500 484 Climbing Minneapolis Center
Fri 11:58:16 AM 46.6633 -92.3344 258° West 106 122 8,000 242 Climbing Minneapolis Center
Fri 11:59:00 AM 46.6414 -92.4252 258° West  Level FlightAware Approximate
Fri 11:59:18 AM 46.6561 -92.3850 258° West 116 133 8,000  Level Minneapolis Center
Fri 12:00:00 PM 46.6333 -92.4803 258° West  Level FlightAware Approximate
Fri 12:00:20 PM 46.6483 -92.4367 258° West 123 142 8,000  Level Minneapolis Center
Fri 12:01:22 PM 46.6397 -92.4983 259° West 128 147 8,000  Level Minneapolis Center
Fri 12:02:24 PM 46.6333 -92.5517 260° West 130 150 8,000  Level Minneapolis Center
Fri 12:03:26 PM 46.6261 -92.6028 258° West 130 150 8,000  Level Minneapolis Center
Fri 12:04:28 PM 46.6206 -92.6542 261° West 130 150 8,000  Level Minneapolis Center
Fri 12:05:30 PM 46.6131 -92.7064 258° West 130 150 8,000  Level Minneapolis Center
Fri 12:06:32 PM 46.6067 -92.7619 261° West 134 154 8,000  Level Minneapolis Center
Fri 12:07:33 PM 46.5953 -92.8272 256° West 138 159 8,000 -49 Level Minneapolis Center
Fri 12:08:35 PM 46.5864 -92.8844 257° West 142 163 7,900 -48 Descending Minneapolis Center
Fri 12:09:37 PM 46.5783 -92.9406 258° West 142 163 7,900  Level Minneapolis Center
Fri 12:10:39 PM 46.5697 -92.9947 257° West 139 160 7,900  Level Minneapolis Center
Fri 12:11:41 PM 46.5628 -93.0497 260° West 139 160 7,900  Level Minneapolis Center
Fri 12:12:43 PM 46.5544 -93.1047 258° West 139 160 7,900  Level Minneapolis Center
Fri 12:13:45 PM 46.5461 -93.1592 257° West 139 160 7,900  Level Minneapolis Center
Fri 12:14:47 PM 46.5372 -93.2242 259° West 137 158 7,900 -242 Level Minneapolis Center
Fri 12:15:49 PM 46.5289 -93.2811 258° West 140 161 7,400 -484 Descending Minneapolis Center
Fri 12:16:51 PM 46.5203 -93.3411 258° West 147 169 6,900 -480 Descending Minneapolis Center
Fri 12:17:54 PM 46.5131 -93.4008 260° West 150 173 6,400 -480 Descending Minneapolis Center
Fri 12:18:56 PM 46.5033 -93.4583 256° West 149 171 5,900 -484 Descending Minneapolis Center
Fri 12:19:58 PM 46.4950 -93.5175 258° West 149 171 5,400 -532 Descending Minneapolis Center
Fri 12:21:00 PM 46.5047 -93.5844 282° West 144 166 4,800 -484 Descending Minneapolis Center
Fri 12:22:02 PM 46.5150 -93.6392 285° West 144 166 4,400 -387 Descending Minneapolis Center
Fri 12:23:04 PM 46.5250 -93.6939 285° West 142 163 4,000 -435 Descending Minneapolis Center
Fri 12:24:06 PM 46.5347 -93.7483 285° West 141 162 3,500 -435 Descending Minneapolis Center
Fri 12:25:08 PM 46.5464 -93.8008 288° West 140 161 3,100 -290 Descending Minneapolis Center
Fri 12:26:10 PM 46.5428 -93.8567 265° West 145 167 2,900 -48 Descending Minneapolis Center
Fri 12:27:12 PM 46.5142 -93.9103 232° Southwest 145 167 3,000 48 Climbing Minneapolis Center
Fri 12:28:14 PM 46.4903 -93.9572 234° Southwest 144 166 3,000  Level Minneapolis Center
Fri 12:29:16 PM 46.4672 -94.0033 234° Southwest 143 165 3,000  Level Minneapolis Center
Fri 12:30:18 PM 46.4456 -94.0472 234° Southwest 143 165 3,000  Level Minneapolis Center

Login

Don't have an account? Register now (free) for customized features, flight alerts, and more!